TimeCDT,TemperatureF,Dew PointF,Humidity,Sea Level PressureIn,VisibilityMPH,Wind Direction,Wind SpeedMPH,Gust SpeedMPH,PrecipitationIn,Events,Conditions,WindDirDegrees,DateUTC
12:15 AM,54.9,53.6,96,30.08,10.0,Calm,Calm,-,N/A,,Overcast,0,2013-07-29 05:15:00
12:35 AM,53.6,52.3,95,30.08,10.0,Calm,Calm,-,N/A,,Overcast,0,2013-07-29 05:35:00
12:55 AM,53.4,52.0,95,30.08,10.0,Calm,Calm,-,N/A,,Mostly Cloudy,0,2013-07-29 05:55:00
1:15 AM,52.2,50.9,95,30.08,10.0,Calm,Calm,-,N/A,,Scattered Clouds,0,2013-07-29 06:15:00
1:35 AM,52.9,51.8,96,30.08,10.0,Calm,Calm,-,N/A,,Clear,0,2013-07-29 06:35:00
1:55 AM,52.7,51.8,97,30.08,2.0,Calm,Calm,-,N/A,,Clear,0,2013-07-29 06:55:00
2:15 AM,52.3,51.3,96,30.08,10.0,Calm,Calm,-,N/A,,Clear,0,2013-07-29 07:15:00
2:55 AM,51.1,50.2,97,30.09,10.0,Calm,Calm,-,N/A,,Clear,0,2013-07-29 07:55:00
3:15 AM,51.1,50.2,97,30.09,7.0,Calm,Calm,-,N/A,,Clear,0,2013-07-29 08:15:00
3:35 AM,50.9,50.0,97,30.10,10.0,Calm,Calm,-,N/A,,Clear,0,2013-07-29 08:35:00
3:55 AM,50.9,50.0,97,30.10,10.0,Calm,Calm,-,N/A,,Clear,0,2013-07-29 08:55:00
4:15 AM,50.2,49.3,97,30.11,7.0,Calm,Calm,-,N/A,,Clear,0,2013-07-29 09:15:00
4:35 AM,48.9,48.0,97,30.11,2.5,Calm,Calm,-,N/A,,Clear,0,2013-07-29 09:35:00
4:55 AM,49.3,48.4,97,30.11,10.0,Calm,Calm,-,N/A,,Clear,0,2013-07-29 09:55:00
5:15 AM,49.1,48.2,97,30.11,10.0,Calm,Calm,-,N/A,,Clear,0,2013-07-29 10:15:00
5:35 AM,48.9,48.0,97,30.12,0.8,Calm,Calm,-,N/A,,Mist,0,2013-07-29 10:35:00
5:55 AM,48.9,48.0,97,30.12,1.8,Calm,Calm,-,N/A,,Mist,0,2013-07-29 10:55:00
6:15 AM,47.5,46.6,97,30.13,10.0,Calm,Calm,-,N/A,,Clear,0,2013-07-29 11:15:00
6:35 AM,48.4,47.5,97,30.14,7.0,Calm,Calm,-,N/A,,Scattered Clouds,0,2013-07-29 11:35:00
6:55 AM,50.9,50.0,97,30.14,10.0,Calm,Calm,-,N/A,,Clear,0,2013-07-29 11:55:00
7:15 AM,52.9,51.8,96,30.14,10.0,Calm,Calm,-,N/A,,Clear,0,2013-07-29 12:15:00
7:35 AM,56.3,54.1,92,30.15,10.0,Calm,Calm,-,N/A,,Clear,0,2013-07-29 12:35:00
7:55 AM,58.6,54.7,87,30.16,10.0,Calm,Calm,-,N/A,,Clear,0,2013-07-29 12:55:00
8:15 AM,61.3,54.5,78,30.16,10.0,Calm,Calm,-,N/A,,Clear,0,2013-07-29 13:15:00
8:35 AM,63.0,55.4,76,30.16,10.0,Calm,Calm,-,N/A,,Clear,0,2013-07-29 13:35:00
8:55 AM,64.4,54.1,69,30.16,10.0,Calm,Calm,-,N/A,,Clear,0,2013-07-29 13:55:00
9:15 AM,65.7,54.0,66,30.17,10.0,Calm,Calm,-,N/A,,Clear,0,2013-07-29 14:15:00
9:35 AM,67.3,54.1,63,30.16,10.0,Calm,Calm,-,N/A,,Clear,0,2013-07-29 14:35:00
9:55 AM,68.0,52.9,58,30.16,10.0,WNW,3.5,-,N/A,,Clear,300,2013-07-29 14:55:00
10:15 AM,68.9,50.2,51,30.16,10.0,Calm,Calm,-,N/A,,Clear,0,2013-07-29 15:15:00
10:35 AM,69.3,50.4,51,30.17,10.0,Calm,Calm,-,N/A,,Clear,0,2013-07-29 15:35:00
10:55 AM,70.9,50.5,48,30.16,10.0,Calm,Calm,-,N/A,,Clear,0,2013-07-29 15:55:00
11:15 AM,70.5,51.1,50,30.16,10.0,Calm,Calm,-,N/A,,Clear,0,2013-07-29 16:15:00
11:35 AM,72.0,51.3,48,30.16,10.0,SSW,4.6,-,N/A,,Clear,210,2013-07-29 16:35:00
11:55 AM,72.5,50.0,45,30.16,10.0,Calm,Calm,-,N/A,,Clear,0,2013-07-29 16:55:00
12:15 PM,73.8,50.9,45,30.16,10.0,SE,4.6,-,N/A,,Clear,130,2013-07-29 17:15:00
12:35 PM,72.7,50.4,45,30.15,10.0,Calm,Calm,-,0.01,,Clear,0,2013-07-29 17:35:00
12:55 PM,74.3,52.9,47,30.15,10.0,SSW,5.8,-,0.01,,Clear,200,2013-07-29 17:55:00
1:15 PM,73.4,52.0,47,30.16,10.0,South,6.9,-,N/A,,Clear,190,2013-07-29 18:15:00
1:35 PM,75.0,50.5,42,30.15,10.0,SSW,5.8,-,N/A,,Clear,210,2013-07-29 18:35:00
1:55 PM,74.8,51.1,43,30.16,10.0,SSW,6.9,-,N/A,,Clear,200,2013-07-29 18:55:00
2:15 PM,74.5,49.3,41,30.16,10.0,Calm,Calm,-,N/A,,Clear,0,2013-07-29 19:15:00
2:35 PM,75.6,51.4,43,30.16,10.0,SSW,5.8,-,N/A,,Clear,210,2013-07-29 19:35:00
2:55 PM,74.5,53.1,47,30.15,10.0,South,6.9,-,N/A,,Clear,190,2013-07-29 19:55:00
3:15 PM,74.5,53.1,47,30.15,10.0,South,3.5,-,N/A,,Clear,190,2013-07-29 20:15:00
3:35 PM,74.5,53.4,48,30.16,10.0,Calm,Calm,-,N/A,,Clear,0,2013-07-29 20:35:00
3:55 PM,73.9,54.7,51,30.14,10.0,South,5.8,-,N/A,,Clear,170,2013-07-29 20:55:00
4:15 PM,74.3,54.7,50,30.15,10.0,SSW,3.5,-,N/A,,Clear,200,2013-07-29 21:15:00
4:35 PM,76.5,52.5,43,30.15,10.0,Calm,Calm,-,N/A,,Clear,0,2013-07-29 21:35:00
4:55 PM,75.0,51.3,43,30.14,10.0,Calm,Calm,-,N/A,,Clear,0,2013-07-29 21:55:00
5:15 PM,75.6,53.8,47,30.14,10.0,SE,4.6,-,N/A,,Clear,140,2013-07-29 22:15:00
5:35 PM,75.0,54.7,49,30.14,10.0,Calm,Calm,-,N/A,,Clear,0,2013-07-29 22:35:00
5:55 PM,75.2,55.0,49,30.14,10.0,Calm,Calm,-,N/A,,Clear,0,2013-07-29 22:55:00
6:15 PM,75.0,55.2,50,30.13,10.0,Calm,Calm,-,N/A,,Clear,0,2013-07-29 23:15:00
6:35 PM,74.5,54.5,50,30.13,10.0,SE,3.5,-,N/A,,Clear,130,2013-07-29 23:35:00
6:55 PM,73.0,55.4,54,30.13,10.0,ESE,3.5,-,N/A,,Clear,110,2013-07-29 23:55:00
7:15 PM,72.5,57.0,58,30.13,10.0,Calm,Calm,-,N/A,,Clear,0,2013-07-30 00:15:00
7:35 PM,71.2,57.2,61,30.13,10.0,Calm,Calm,-,N/A,,Clear,0,2013-07-30 00:35:00
7:55 PM,69.6,57.0,64,30.13,10.0,Calm,Calm,-,N/A,,Clear,0,2013-07-30 00:55:00
8:15 PM,68.5,56.7,66,30.12,10.0,ESE,3.5,-,N/A,,Clear,110,2013-07-30 01:15:00
8:35 PM,68.0,56.5,67,30.12,10.0,East,3.5,-,N/A,,Clear,100,2013-07-30 01:35:00
8:55 PM,67.1,57.0,70,30.13,10.0,Calm,Calm,-,N/A,,Clear,0,2013-07-30 01:55:00
9:15 PM,67.3,56.7,69,30.14,10.0,Calm,Calm,-,N/A,,Scattered Clouds,0,2013-07-30 02:15:00
9:35 PM,67.6,56.3,67,30.14,10.0,Calm,Calm,-,N/A,,Mostly Cloudy,0,2013-07-30 02:35:00
9:55 PM,67.6,56.3,67,30.15,10.0,East,3.5,-,N/A,,Scattered Clouds,80,2013-07-30 02:55:00
10:15 PM,67.1,56.3,68,30.16,10.0,ESE,3.5,-,N/A,,Scattered Clouds,110,2013-07-30 03:15:00
10:35 PM,66.4,56.7,71,30.15,10.0,East,3.5,-,N/A,,Clear,100,2013-07-30 03:35:00
10:55 PM,66.4,56.7,71,30.15,10.0,East,3.5,-,N/A,,Mostly Cloudy,100,2013-07-30 03:55:00
11:15 PM,66.2,56.5,71,30.14,10.0,East,3.5,-,N/A,,Scattered Clouds,100,2013-07-30 04:15:00
11:35 PM,66.2,56.1,70,30.14,10.0,East,4.6,-,N/A,,Scattered Clouds,80,2013-07-30 04:35:00
11:55 PM,66.4,55.4,68,30.15,10.0,East,4.6,-,N/A,,Mostly Cloudy,100,2013-07-30 04:55:00